sensor_id;sensor_type;location;lat;lon;timestamp;pressure;altitude;pressure_sealevel;temperature;humidity
36190;BME280;22232;50.914;13.858;2023-02-28T00:01:28;99036.50;;;-2.08;100.00
36190;BME280;22232;50.914;13.858;2023-02-28T00:03:57;99037.06;;;-2.04;100.00
36190;BME280;22232;50.914;13.858;2023-02-28T00:06:25;99046.34;;;-2.00;100.00
36190;BME280;22232;50.914;13.858;2023-02-28T00:08:52;99037.69;;;-2.00;100.00
36190;BME280;22232;50.914;13.858;2023-02-28T00:11:20;99032.81;;;-2.05;100.00
36190;BME280;22232;50.914;13.858;2023-02-28T00:13:48;99034.69;;;-2.07;100.00
36190;BME280;22232;50.914;13.858;2023-02-28T00:16:20;99031.03;;;-2.16;100.00
36190;BME280;22232;50.914;13.858;2023-02-28T00:18:49;99028.44;;;-2.16;100.00
36190;BME280;22232;50.914;13.858;2023-02-28T00:21:18;99037.34;;;-2.18;100.00
36190;BME280;22232;50.914;13.858;2023-02-28T00:23:46;99023.31;;;-2.17;100.00
36190;BME280;22232;50.914;13.858;2023-02-28T00:26:13;99026.88;;;-2.18;100.00
36190;BME280;22232;50.914;13.858;2023-02-28T00:28:44;99027.13;;;-2.21;100.00
36190;BME280;22232;50.914;13.858;2023-02-28T00:31:12;99033.75;;;-2.17;100.00
36190;BME280;22232;50.914;13.858;2023-02-28T00:33:40;99022.00;;;-2.23;100.00
36190;BME280;22232;50.914;13.858;2023-02-28T00:36:09;99030.66;;;-2.22;100.00
36190;BME280;22232;50.914;13.858;2023-02-28T00:38:39;99022.47;;;-2.18;100.00
36190;BME280;22232;50.914;13.858;2023-02-28T00:41:07;99027.22;;;-2.12;100.00
36190;BME280;22232;50.914;13.858;2023-02-28T00:43:36;99019.03;;;-2.18;100.00
36190;BME280;22232;50.914;13.858;2023-02-28T00:46:05;99019.28;;;-2.21;100.00
36190;BME280;22232;50.914;13.858;2023-02-28T00:48:33;99019.97;;;-2.19;100.00
36190;BME280;22232;50.914;13.858;2023-02-28T00:51:00;99023.56;;;-2.20;100.00
36190;BME280;22232;50.914;13.858;2023-02-28T00:53:29;99022.84;;;-2.22;100.00
36190;BME280;22232;50.914;13.858;2023-02-28T00:55:57;99021.19;;;-2.23;100.00
36190;BME280;22232;50.914;13.858;2023-02-28T00:58:26;99022.25;;;-2.26;100.00
36190;BME280;22232;50.914;13.858;2023-02-28T01:00:54;99027.13;;;-2.21;100.00
36190;BME280;22232;50.914;13.858;2023-02-28T01:03:23;99021.56;;;-2.28;100.00
36190;BME280;22232;50.914;13.858;2023-02-28T01:05:51;99018.94;;;-2.28;100.00
36190;BME280;22232;50.914;13.858;2023-02-28T01:08:20;99020.69;;;-2.28;100.00
36190;BME280;22232;50.914;13.858;2023-02-28T01:10:48;99022.63;;;-2.31;100.00
36190;BME280;22232;50.914;13.858;2023-02-28T01:13:15;99029.38;;;-2.28;100.00
36190;BME280;22232;50.914;13.858;2023-02-28T01:15:46;99019.63;;;-2.26;100.00
36190;BME280;22232;50.914;13.858;2023-02-28T01:18:17;99021.31;;;-2.25;100.00
36190;BME280;22232;50.914;13.858;2023-02-28T01:20:44;99015.13;;;-2.24;100.00
36190;BME280;22232;50.914;13.858;2023-02-28T01:23:13;99020.34;;;-2.24;100.00
36190;BME280;22232;50.914;13.858;2023-02-28T01:25:41;99017.50;;;-2.21;100.00
36190;BME280;22232;50.914;13.858;2023-02-28T01:28:08;99021.75;;;-2.20;100.00
36190;BME280;22232;50.914;13.858;2023-02-28T01:30:36;99018.22;;;-2.19;100.00
36190;BME280;22232;50.914;13.858;2023-02-28T01:33:03;99014.75;;;-2.19;100.00
36190;BME280;22232;50.914;13.858;2023-02-28T01:35:35;99009.28;;;-2.16;100.00
36190;BME280;22232;50.914;13.858;2023-02-28T01:38:03;99013.81;;;-2.18;100.00
36190;BME280;22232;50.914;13.858;2023-02-28T01:40:47;99020.84;;;-2.19;100.00
36190;BME280;22232;50.914;13.858;2023-02-28T01:43:21;99011.44;;;-2.21;100.00
36190;BME280;22232;50.914;13.858;2023-02-28T01:45:49;99013.22;;;-2.22;100.00
36190;BME280;22232;50.914;13.858;2023-02-28T01:48:18;99005.63;;;-2.25;100.00
36190;BME280;22232;50.914;13.858;2023-02-28T01:50:47;99004.78;;;-2.25;100.00
36190;BME280;22232;50.914;13.858;2023-02-28T01:53:19;99009.91;;;-2.24;100.00
36190;BME280;22232;50.914;13.858;2023-02-28T01:55:49;99004.09;;;-2.27;100.00
36190;BME280;22232;50.914;13.858;2023-02-28T01:58:20;99010.97;;;-2.26;100.00
36190;BME280;22232;50.914;13.858;2023-02-28T02:00:48;99004.66;;;-2.24;100.00
36190;BME280;22232;50.914;13.858;2023-02-28T02:03:18;99005.50;;;-2.23;100.00
36190;BME280;22232;50.914;13.858;2023-02-28T02:05:47;99001.94;;;-2.22;100.00
36190;BME280;22232;50.914;13.858;2023-02-28T02:08:20;98997.56;;;-2.22;100.00
36190;BME280;22232;50.914;13.858;2023-02-28T02:10:51;98997.56;;;-2.22;100.00
36190;BME280;22232;50.914;13.858;2023-02-28T02:22:37;98996.84;;;-2.35;100.00
36190;BME280;22232;50.914;13.858;2023-02-28T02:42:01;98989.94;;;-2.36;100.00
36190;BME280;22232;50.914;13.858;2023-02-28T02:44:43;98996.00;;;-2.36;100.00
36190;BME280;22232;50.914;13.858;2023-02-28T02:47:23;98998.50;;;-2.34;100.00
36190;BME280;22232;50.914;13.858;2023-02-28T02:49:55;99004.56;;;-2.34;100.00
36190;BME280;22232;50.914;13.858;2023-02-28T02:52:34;98997.19;;;-2.28;100.00
36190;BME280;22232;50.914;13.858;2023-02-28T02:55:07;98997.06;;;-2.27;100.00
36190;BME280;22232;50.914;13.858;2023-02-28T02:57:47;98999.69;;;-2.27;100.00
36190;BME280;22232;50.914;13.858;2023-02-28T03:00:17;99000.41;;;-2.36;100.00
36190;BME280;22232;50.914;13.858;2023-02-28T03:02:49;99003.50;;;-2.42;100.00
36190;BME280;22232;50.914;13.858;2023-02-28T03:05:25;98996.84;;;-2.46;100.00
36190;BME280;22232;50.914;13.858;2023-02-28T03:07:55;99007.31;;;-2.46;100.00
36190;BME280;22232;50.914;13.858;2023-02-28T03:10:28;99004.56;;;-2.45;100.00
36190;BME280;22232;50.914;13.858;2023-02-28T03:13:19;99002.91;;;-2.46;100.00
36190;BME280;22232;50.914;13.858;2023-02-28T03:16:17;99006.69;;;-2.50;100.00
36190;BME280;22232;50.914;13.858;2023-02-28T03:24:21;99006.81;;;-2.63;100.00
36190;BME280;22232;50.914;13.858;2023-02-28T03:26:58;99002.78;;;-2.67;100.00
36190;BME280;22232;50.914;13.858;2023-02-28T03:29:35;99006.69;;;-2.72;100.00
36190;BME280;22232;50.914;13.858;2023-02-28T03:34:58;98999.81;;;-2.73;100.00
36190;BME280;22232;50.914;13.858;2023-02-28T03:37:33;98998.94;;;-2.74;100.00
36190;BME280;22232;50.914;13.858;2023-02-28T03:40:08;98999.06;;;-2.87;100.00
36190;BME280;22232;50.914;13.858;2023-02-28T03:42:42;99000.59;;;-2.84;100.00
36190;BME280;22232;50.914;13.858;2023-02-28T03:45:13;98999.88;;;-2.86;100.00
36190;BME280;22232;50.914;13.858;2023-02-28T03:50:29;98996.31;;;-2.96;100.00
36190;BME280;22232;50.914;13.858;2023-02-28T03:53:12;98999.97;;;-2.99;100.00
36190;BME280;22232;50.914;13.858;2023-02-28T03:55:45;99003.78;;;-3.03;100.00
36190;BME280;22232;50.914;13.858;2023-02-28T03:58:31;99009.22;;;-3.06;100.00
36190;BME280;22232;50.914;13.858;2023-02-28T04:01:16;99006.72;;;-3.08;100.00
36190;BME280;22232;50.914;13.858;2023-02-28T04:03:47;99010.28;;;-3.09;100.00
36190;BME280;22232;50.914;13.858;2023-02-28T04:06:21;99011.94;;;-3.08;100.00
36190;BME280;22232;50.914;13.858;2023-02-28T04:08:49;99017.53;;;-3.12;100.00
36190;BME280;22232;50.914;13.858;2023-02-28T04:13:44;99016.09;;;-3.16;100.00
36190;BME280;22232;50.914;13.858;2023-02-28T04:16:14;99022.00;;;-3.14;100.00
36190;BME280;22232;50.914;13.858;2023-02-28T04:19:01;99015.38;;;-3.18;100.00
36190;BME280;22232;50.914;13.858;2023-02-28T04:21:44;99024.97;;;-3.19;100.00
36190;BME280;22232;50.914;13.858;2023-02-28T04:24:15;99029.59;;;-3.22;100.00
36190;BME280;22232;50.914;13.858;2023-02-28T04:26:45;99031.47;;;-3.25;100.00
36190;BME280;22232;50.914;13.858;2023-02-28T04:29:18;99026.34;;;-3.26;100.00
36190;BME280;22232;50.914;13.858;2023-02-28T04:31:47;99029.19;;;-3.29;100.00
36190;BME280;22232;50.914;13.858;2023-02-28T04:34:15;99028.25;;;-3.28;100.00
36190;BME280;22232;50.914;13.858;2023-02-28T04:36:42;99033.59;;;-3.30;100.00
36190;BME280;22232;50.914;13.858;2023-02-28T04:39:10;99032.97;;;-3.33;100.00
36190;BME280;22232;50.914;13.858;2023-02-28T04:41:38;99035.59;;;-3.33;100.00
36190;BME280;22232;50.914;13.858;2023-02-28T04:44:05;99031.31;;;-3.34;100.00
36190;BME280;22232;50.914;13.858;2023-02-28T04:46:33;99034.38;;;-3.40;100.00
36190;BME280;22232;50.914;13.858;2023-02-28T04:49:00;99037.09;;;-3.42;100.00
36190;BME280;22232;50.914;13.858;2023-02-28T04:51:28;99030.31;;;-3.44;100.00
36190;BME280;22232;50.914;13.858;2023-02-28T04:53:56;99033.16;;;-3.48;100.00
36190;BME280;22232;50.914;13.858;2023-02-28T04:56:24;99035.06;;;-3.50;100.00
36190;BME280;22232;50.914;13.858;2023-02-28T04:58:51;99036.94;;;-3.52;100.00
36190;BME280;22232;50.914;13.858;2023-02-28T05:03:57;99033.34;;;-3.62;100.00
36190;BME280;22232;50.914;13.858;2023-02-28T05:06:27;99042.31;;;-3.66;100.00
36190;BME280;22232;50.914;13.858;2023-02-28T05:08:54;99047.50;;;-3.66;100.00
36190;BME280;22232;50.914;13.858;2023-02-28T05:11:30;99044.09;;;-3.66;100.00
36190;BME280;22232;50.914;13.858;2023-02-28T05:14:03;99055.78;;;-3.72;100.00
36190;BME280;22232;50.914;13.858;2023-02-28T05:16:32;99053.59;;;-3.78;100.00
36190;BME280;22232;50.914;13.858;2023-02-28T05:18:59;99054.66;;;-3.81;100.00
36190;BME280;22232;50.914;13.858;2023-02-28T05:21:29;99047.69;;;-3.80;100.00
36190;BME280;22232;50.914;13.858;2023-02-28T05:24:00;99048.75;;;-3.83;100.00
36190;BME280;22232;50.914;13.858;2023-02-28T05:26:28;99043.41;;;-3.81;100.00
36190;BME280;22232;50.914;13.858;2023-02-28T05:28:56;99054.16;;;-3.86;100.00
36190;BME280;22232;50.914;13.858;2023-02-28T05:31:24;99049.78;;;-3.85;100.00
36190;BME280;22232;50.914;13.858;2023-02-28T05:33:52;99052.38;;;-3.85;100.00
36190;BME280;22232;50.914;13.858;2023-02-28T05:36:20;99062.06;;;-3.87;100.00
36190;BME280;22232;50.914;13.858;2023-02-28T05:38:49;99056.88;;;-3.87;100.00
36190;BME280;22232;50.914;13.858;2023-02-28T05:41:18;99056.66;;;-3.84;100.00
36190;BME280;22232;50.914;13.858;2023-02-28T05:43:48;99058.22;;;-3.82;100.00
36190;BME280;22232;50.914;13.858;2023-02-28T05:46:16;99060.22;;;-3.85;100.00
36190;BME280;22232;50.914;13.858;2023-02-28T05:48:46;99060.50;;;-3.77;100.00
36190;BME280;22232;50.914;13.858;2023-02-28T05:51:15;99066.03;;;-3.82;100.00
36190;BME280;22232;50.914;13.858;2023-02-28T05:53:43;99063.84;;;-3.88;100.00
36190;BME280;22232;50.914;13.858;2023-02-28T05:56:11;99061.47;;;-3.91;100.00
36190;BME280;22232;50.914;13.858;2023-02-28T05:58:38;99054.69;;;-3.94;100.00
36190;BME280;22232;50.914;13.858;2023-02-28T06:01:37;99065.81;;;-3.79;100.00
36190;BME280;22232;50.914;13.858;2023-02-28T06:04:08;99056.97;;;-3.52;100.00
36190;BME280;22232;50.914;13.858;2023-02-28T06:06:51;99065.03;;;-3.20;100.00
36190;BME280;22232;50.914;13.858;2023-02-28T06:09:19;99059.00;;;-2.85;100.00
36190;BME280;22232;50.914;13.858;2023-02-28T06:11:47;99061.19;;;-2.45;100.00
36190;BME280;22232;50.914;13.858;2023-02-28T06:14:17;99053.84;;;-2.06;100.00
36190;BME280;22232;50.914;13.858;2023-02-28T06:16:45;99056.63;;;-1.65;100.00
36190;BME280;22232;50.914;13.858;2023-02-28T06:19:13;99051.53;;;-1.34;100.00
36190;BME280;22232;50.914;13.858;2023-02-28T06:21:42;99058.88;;;-0.96;100.00
36190;BME280;22232;50.914;13.858;2023-02-28T06:24:10;99059.66;;;-0.42;100.00
36190;BME280;22232;50.914;13.858;2023-02-28T06:26:37;99056.81;;;-0.29;100.00
36190;BME280;22232;50.914;13.858;2023-02-28T06:29:05;99055.28;;;0.09;100.00
36190;BME280;22232;50.914;13.858;2023-02-28T06:31:33;99060.34;;;0.41;100.00
36190;BME280;22232;50.914;13.858;2023-02-28T06:34:00;99062.19;;;0.69;100.00
36190;BME280;22232;50.914;13.858;2023-02-28T06:36:28;99066.75;;;0.87;100.00
36190;BME280;22232;50.914;13.858;2023-02-28T06:38:56;99071.88;;;1.18;100.00
36190;BME280;22232;50.914;13.858;2023-02-28T06:41:25;99072.94;;;1.25;100.00
36190;BME280;22232;50.914;13.858;2023-02-28T06:43:53;99082.75;;;1.52;100.00
36190;BME280;22232;50.914;13.858;2023-02-28T06:46:21;99082.75;;;1.52;100.00
36190;BME280;22232;50.914;13.858;2023-02-28T06:48:49;99085.72;;;1.86;100.00
36190;BME280;22232;50.914;13.858;2023-02-28T06:51:19;99096.81;;;1.70;100.00
36190;BME280;22232;50.914;13.858;2023-02-28T06:53:51;99094.22;;;2.08;100.00
36190;BME280;22232;50.914;13.858;2023-02-28T06:56:19;99090.84;;;2.15;100.00
36190;BME280;22232;50.914;13.858;2023-02-28T06:58:49;99094.00;;;2.28;100.00
36190;BME280;22232;50.914;13.858;2023-02-28T07:01:17;99094.94;;;2.55;100.00
36190;BME280;22232;50.914;13.858;2023-02-28T07:03:46;99085.75;;;2.41;100.00
36190;BME280;22232;50.914;13.858;2023-02-28T07:06:23;99093.78;;;2.85;100.00
36190;BME280;22232;50.914;13.858;2023-02-28T07:08:52;99095.22;;;3.15;100.00
36190;BME280;22232;50.914;13.858;2023-02-28T07:11:21;99093.47;;;3.24;100.00
36190;BME280;22232;50.914;13.858;2023-02-28T07:13:54;99091.06;;;2.95;100.00
36190;BME280;22232;50.914;13.858;2023-02-28T07:16:23;99104.22;;;3.31;100.00
36190;BME280;22232;50.914;13.858;2023-02-28T07:18:54;99103.94;;;3.34;100.00
36190;BME280;22232;50.914;13.858;2023-02-28T07:21:22;99105.75;;;2.97;100.00
36190;BME280;22232;50.914;13.858;2023-02-28T07:23:50;99104.53;;;3.28;100.00
36190;BME280;22232;50.914;13.858;2023-02-28T07:26:19;99105.56;;;3.53;100.00
36190;BME280;22232;50.914;13.858;2023-02-28T07:28:48;99101.00;;;3.81;100.00
36190;BME280;22232;50.914;13.858;2023-02-28T07:31:16;99108.50;;;3.50;100.00
36190;BME280;22232;50.914;13.858;2023-02-28T07:33:45;99106.41;;;3.79;100.00
36190;BME280;22232;50.914;13.858;2023-02-28T07:36:15;99101.38;;;3.94;100.00
36190;BME280;22232;50.914;13.858;2023-02-28T07:38:46;99109.50;;;3.31;100.00
36190;BME280;22232;50.914;13.858;2023-02-28T07:41:19;99104.53;;;2.74;100.00
36190;BME280;22232;50.914;13.858;2023-02-28T07:43:48;99109.19;;;3.34;100.00
36190;BME280;22232;50.914;13.858;2023-02-28T07:46:16;99107.88;;;3.30;100.00
36190;BME280;22232;50.914;13.858;2023-02-28T07:48:44;99106.63;;;3.60;100.00
36190;BME280;22232;50.914;13.858;2023-02-28T07:51:12;99113.38;;;3.88;100.00
36190;BME280;22232;50.914;13.858;2023-02-28T07:53:39;99113.31;;;3.80;100.00
36190;BME280;22232;50.914;13.858;2023-02-28T07:56:07;99118.09;;;3.77;88.20
36190;BME280;22232;50.914;13.858;2023-02-28T07:58:35;99114.13;;;3.73;88.99
36190;BME280;22232;50.914;13.858;2023-02-28T08:01:07;99120.88;;;3.31;95.35
36190;BME280;22232;50.914;13.858;2023-02-28T08:03:36;99129.59;;;2.78;96.10
36190;BME280;22232;50.914;13.858;2023-02-28T08:06:06;99119.88;;;2.33;100.00
36190;BME280;22232;50.914;13.858;2023-02-28T08:08:34;99133.19;;;2.59;100.00
36190;BME280;22232;50.914;13.858;2023-02-28T08:11:02;99123.03;;;2.64;100.00
36190;BME280;22232;50.914;13.858;2023-02-28T08:13:30;99118.28;;;2.40;100.00
36190;BME280;22232;50.914;13.858;2023-02-28T08:15:58;99130.09;;;2.36;100.00
36190;BME280;22232;50.914;13.858;2023-02-28T08:18:25;99123.66;;;2.48;100.00
36190;BME280;22232;50.914;13.858;2023-02-28T08:20:53;99124.72;;;2.56;100.00
36190;BME280;22232;50.914;13.858;2023-02-28T08:23:20;99129.38;;;2.71;100.00
36190;BME280;22232;50.914;13.858;2023-02-28T08:25:57;99117.66;;;3.02;100.00
36190;BME280;22232;50.914;13.858;2023-02-28T08:28:24;99118.94;;;3.33;98.56
36190;BME280;22232;50.914;13.858;2023-02-28T08:30:54;99121.25;;;3.18;93.40
36190;BME280;22232;50.914;13.858;2023-02-28T08:33:22;99131.13;;;2.25;100.00
36190;BME280;22232;50.914;13.858;2023-02-28T08:35:54;99126.63;;;2.08;100.00
36190;BME280;22232;50.914;13.858;2023-02-28T08:38:23;99132.28;;;2.13;100.00
36190;BME280;22232;50.914;13.858;2023-02-28T08:40:57;99136.81;;;2.21;100.00
36190;BME280;22232;50.914;13.858;2023-02-28T08:43:27;99137.25;;;1.69;100.00
36190;BME280;22232;50.914;13.858;2023-02-28T08:45:55;99140.75;;;1.21;100.00
36190;BME280;22232;50.914;13.858;2023-02-28T08:48:25;99143.72;;;0.68;100.00
36190;BME280;22232;50.914;13.858;2023-02-28T08:51:01;99137.28;;;1.01;100.00
36190;BME280;22232;50.914;13.858;2023-02-28T08:53:39;99143.22;;;1.42;100.00
36190;BME280;22232;50.914;13.858;2023-02-28T08:56:09;99140.03;;;0.90;100.00
36190;BME280;22232;50.914;13.858;2023-02-28T08:58:37;99142.81;;;0.88;100.00
36190;BME280;22232;50.914;13.858;2023-02-28T09:01:34;99137.91;;;0.64;100.00
36190;BME280;22232;50.914;13.858;2023-02-28T09:04:02;99136.44;;;0.91;100.00
36190;BME280;22232;50.914;13.858;2023-02-28T09:06:29;99140.88;;;1.29;100.00
36190;BME280;22232;50.914;13.858;2023-02-28T09:08:58;99143.66;;;1.37;100.00
36190;BME280;22232;50.914;13.858;2023-02-28T09:11:27;99139.66;;;1.43;100.00
36190;BME280;22232;50.914;13.858;2023-02-28T09:13:55;99135.63;;;1.10;100.00
36190;BME280;22232;50.914;13.858;2023-02-28T09:16:22;99138.38;;;0.99;100.00
36190;BME280;22232;50.914;13.858;2023-02-28T09:18:50;99134.94;;;0.98;100.00
36190;BME280;22232;50.914;13.858;2023-02-28T09:21:18;99139.22;;;1.19;100.00
36190;BME280;22232;50.914;13.858;2023-02-28T09:23:48;99143.19;;;0.64;100.00
36190;BME280;22232;50.914;13.858;2023-02-28T09:26:21;99136.78;;;0.57;100.00
36190;BME280;22232;50.914;13.858;2023-02-28T09:28:50;99142.75;;;0.79;100.00
36190;BME280;22232;50.914;13.858;2023-02-28T09:31:23;99138.66;;;0.76;100.00
36190;BME280;22232;50.914;13.858;2023-02-28T09:33:57;99135.31;;;0.94;100.00
36190;BME280;22232;50.914;13.858;2023-02-28T09:36:27;99138.94;;;1.22;100.00
36190;BME280;22232;50.914;13.858;2023-02-28T09:39:10;99140.31;;;0.87;100.00
36190;BME280;22232;50.914;13.858;2023-02-28T09:41:42;99130.00;;;0.55;100.00
36190;BME280;22232;50.914;13.858;2023-02-28T09:44:43;99129.78;;;0.87;100.00
36190;BME280;22232;50.914;13.858;2023-02-28T09:47:24;99133.53;;;0.84;100.00
36190;BME280;22232;50.914;13.858;2023-02-28T09:49:54;99127.69;;;0.61;100.00
36190;BME280;22232;50.914;13.858;2023-02-28T09:52:29;99129.03;;;0.46;100.00
36190;BME280;22232;50.914;13.858;2023-02-28T09:55:39;99143.56;;;0.60;100.00
36190;BME280;22232;50.914;13.858;2023-02-28T09:58:20;99130.50;;;0.39;100.00
36190;BME280;22232;50.914;13.858;2023-02-28T10:00:58;99131.97;;;0.62;100.00
36190;BME280;22232;50.914;13.858;2023-02-28T10:03:40;99147.19;;;0.78;100.00
36190;BME280;22232;50.914;13.858;2023-02-28T10:08:43;99132.97;;;0.71;100.00
36190;BME280;22232;50.914;13.858;2023-02-28T10:11:16;99137.50;;;0.69;100.00
36190;BME280;22232;50.914;13.858;2023-02-28T10:16:15;99133.41;;;1.15;100.00
36190;BME280;22232;50.914;13.858;2023-02-28T10:18:48;99127.44;;;1.42;100.00
36190;BME280;22232;50.914;13.858;2023-02-28T10:21:26;99130.22;;;0.92;95.13
36190;BME280;22232;50.914;13.858;2023-02-28T10:24:50;99133.94;;;0.70;100.00
36190;BME280;22232;50.914;13.858;2023-02-28T10:26:52;99130.88;;;0.65;100.00
36190;BME280;22232;50.914;13.858;2023-02-28T10:29:24;99133.69;;;0.42;100.00
36190;BME280;22232;50.914;13.858;2023-02-28T10:31:51;99132.78;;;0.63;100.00
36190;BME280;22232;50.914;13.858;2023-02-28T10:34:19;99129.63;;;0.79;100.00
36190;BME280;22232;50.914;13.858;2023-02-28T10:36:48;99119.44;;;1.14;100.00
36190;BME280;22232;50.914;13.858;2023-02-28T10:39:35;99131.31;;;1.19;98.40
36190;BME280;22232;50.914;13.858;2023-02-28T10:42:19;99116.53;;;1.18;96.94
36190;BME280;22232;50.914;13.858;2023-02-28T10:44:47;99116.53;;;0.98;97.80
36190;BME280;22232;50.914;13.858;2023-02-28T10:47:17;99119.00;;;0.71;100.00
36190;BME280;22232;50.914;13.858;2023-02-28T10:49:48;99129.72;;;0.48;97.48
36190;BME280;22232;50.914;13.858;2023-02-28T10:52:34;99122.72;;;0.58;94.49
36190;BME280;22232;50.914;13.858;2023-02-28T10:55:21;99116.94;;;1.03;100.00
36190;BME280;22232;50.914;13.858;2023-02-28T10:57:51;99131.72;;;0.25;100.00
36190;BME280;22232;50.914;13.858;2023-02-28T11:00:22;99125.72;;;0.13;100.00
36190;BME280;22232;50.914;13.858;2023-02-28T11:02:50;99121.63;;;0.30;100.00
36190;BME280;22232;50.914;13.858;2023-02-28T11:05:27;99117.03;;;0.13;100.00
36190;BME280;22232;50.914;13.858;2023-02-28T11:08:05;99116.56;;;0.38;100.00
36190;BME280;22232;50.914;13.858;2023-02-28T11:10:33;99120.38;;;0.75;100.00
36190;BME280;22232;50.914;13.858;2023-02-28T11:13:02;99110.56;;;0.77;100.00
36190;BME280;22232;50.914;13.858;2023-02-28T11:15:33;99117.34;;;1.28;92.71
36190;BME280;22232;50.914;13.858;2023-02-28T11:21:05;99110.44;;;1.36;92.74
36190;BME280;22232;50.914;13.858;2023-02-28T11:23:35;99096.59;;;0.66;100.00
36190;BME280;22232;50.914;13.858;2023-02-28T11:26:05;99095.72;;;0.47;100.00
36190;BME280;22232;50.914;13.858;2023-02-28T11:28:39;99094.63;;;0.49;100.00
36190;BME280;22232;50.914;13.858;2023-02-28T11:33:48;99074.75;;;0.56;99.46
36190;BME280;22232;50.914;13.858;2023-02-28T11:36:22;99087.34;;;0.62;100.00
36190;BME280;22232;50.914;13.858;2023-02-28T11:38:56;99088.59;;;0.78;100.00
36190;BME280;22232;50.914;13.858;2023-02-28T11:42:04;99080.44;;;1.00;96.57
36190;BME280;22232;50.914;13.858;2023-02-28T11:47:18;99078.91;;;0.88;94.44
36190;BME280;22232;50.914;13.858;2023-02-28T11:52:56;99074.41;;;1.66;100.00
36190;BME280;22232;50.914;13.858;2023-02-28T11:55:42;99078.31;;;1.62;98.28
36190;BME280;22232;50.914;13.858;2023-02-28T12:06:52;99079.47;;;0.82;100.00
36190;BME280;22232;50.914;13.858;2023-02-28T12:09:45;99077.81;;;1.00;100.00
36190;BME280;22232;50.914;13.858;2023-02-28T12:26:44;99072.56;;;1.86;93.28
36190;BME280;22232;50.914;13.858;2023-02-28T12:29:33;99069.38;;;1.82;95.05
36190;BME280;22232;50.914;13.858;2023-02-28T12:32:06;99077.09;;;1.47;93.86
36190;BME280;22232;50.914;13.858;2023-02-28T12:34:42;99075.06;;;1.11;95.56
36190;BME280;22232;50.914;13.858;2023-02-28T12:37:24;99076.56;;;0.65;93.15
36190;BME280;22232;50.914;13.858;2023-02-28T12:40:00;99073.66;;;0.78;99.68
36190;BME280;22232;50.914;13.858;2023-02-28T12:42:30;99071.47;;;0.93;99.93
36190;BME280;22232;50.914;13.858;2023-02-28T12:45:05;99061.94;;;0.82;98.47
36190;BME280;22232;50.914;13.858;2023-02-28T12:47:38;99058.06;;;0.77;99.88
36190;BME280;22232;50.914;13.858;2023-02-28T12:50:10;99058.88;;;0.87;100.00
36190;BME280;22232;50.914;13.858;2023-02-28T12:55:26;99061.91;;;0.73;94.74
36190;BME280;22232;50.914;13.858;2023-02-28T13:06:29;99046.84;;;0.94;90.86
36190;BME280;22232;50.914;13.858;2023-02-28T13:09:08;99041.44;;;1.15;92.23
36190;BME280;22232;50.914;13.858;2023-02-28T13:11:41;99053.88;;;1.03;100.00
36190;BME280;22232;50.914;13.858;2023-02-28T13:19:58;99040.66;;;1.52;96.35
36190;BME280;22232;50.914;13.858;2023-02-28T13:22:39;99047.28;;;1.66;92.36
36190;BME280;22232;50.914;13.858;2023-02-28T13:27:52;99037.09;;;1.53;100.00
36190;BME280;22232;50.914;13.858;2023-02-28T13:36:30;99054.44;;;1.17;100.00
36190;BME280;22232;50.914;13.858;2023-02-28T13:39:01;99044.06;;;1.15;100.00
36190;BME280;22232;50.914;13.858;2023-02-28T14:05:23;99027.22;;;0.79;100.00
36190;BME280;22232;50.914;13.858;2023-02-28T14:07:56;99017.69;;;0.87;100.00
36190;BME280;22232;50.914;13.858;2023-02-28T14:10:37;99016.16;;;0.65;100.00
36190;BME280;22232;50.914;13.858;2023-02-28T14:13:43;99018.53;;;0.49;100.00
36190;BME280;22232;50.914;13.858;2023-02-28T14:16:44;99021.41;;;0.56;100.00
36190;BME280;22232;50.914;13.858;2023-02-28T14:19:13;99027.06;;;0.61;100.00
36190;BME280;22232;50.914;13.858;2023-02-28T14:27:58;99020.88;;;0.52;100.00
36190;BME280;22232;50.914;13.858;2023-02-28T14:38:56;99016.28;;;0.54;100.00
36190;BME280;22232;50.914;13.858;2023-02-28T14:41:34;99012.13;;;0.52;100.00
36190;BME280;22232;50.914;13.858;2023-02-28T14:44:23;99005.66;;;0.75;100.00
36190;BME280;22232;50.914;13.858;2023-02-28T14:47:02;99022.94;;;0.68;100.00
36190;BME280;22232;50.914;13.858;2023-02-28T14:49:41;99012.16;;;0.61;100.00
36190;BME280;22232;50.914;13.858;2023-02-28T14:52:14;99011.47;;;0.69;100.00
36190;BME280;22232;50.914;13.858;2023-02-28T14:54:43;99009.38;;;0.63;100.00
36190;BME280;22232;50.914;13.858;2023-02-28T14:57:32;99004.03;;;0.64;100.00
36190;BME280;22232;50.914;13.858;2023-02-28T15:02:46;99005.53;;;0.67;100.00
36190;BME280;22232;50.914;13.858;2023-02-28T15:07:44;99005.13;;;0.62;100.00
36190;BME280;22232;50.914;13.858;2023-02-28T15:10:24;99010.06;;;0.84;100.00
36190;BME280;22232;50.914;13.858;2023-02-28T15:12:58;99006.91;;;0.61;100.00
36190;BME280;22232;50.914;13.858;2023-02-28T15:15:39;99008.97;;;0.48;100.00
36190;BME280;22232;50.914;13.858;2023-02-28T15:18:53;99016.72;;;0.40;100.00
36190;BME280;22232;50.914;13.858;2023-02-28T15:21:27;99019.28;;;0.30;100.00
36190;BME280;22232;50.914;13.858;2023-02-28T15:26:39;99014.47;;;0.16;100.00
36190;BME280;22232;50.914;13.858;2023-02-28T15:29:21;99017.91;;;0.16;100.00
36190;BME280;22232;50.914;13.858;2023-02-28T15:32:00;99008.34;;;0.06;100.00
36190;BME280;22232;50.914;13.858;2023-02-28T15:34:38;99014.28;;;0.08;100.00
36190;BME280;22232;50.914;13.858;2023-02-28T15:39:55;99009.59;;;0.02;100.00
36190;BME280;22232;50.914;13.858;2023-02-28T15:42:28;99017.97;;;-0.05;100.00
36190;BME280;22232;50.914;13.858;2023-02-28T15:44:56;99014.38;;;-0.13;100.00
36190;BME280;22232;50.914;13.858;2023-02-28T15:47:27;99020.31;;;-0.11;100.00
36190;BME280;22232;50.914;13.858;2023-02-28T15:50:06;99020.97;;;-0.19;100.00